sensor_id;sensor_type;location;lat;lon;timestamp;pressure;altitude;pressure_sealevel;temperature;humidity
65173;BME280;69059;52.218;5.172;2023-07-13T00:00:04;98887.66;;;17.39;100.00
65173;BME280;69059;52.218;5.172;2023-07-13T00:02:35;98890.06;;;17.31;100.00
65173;BME280;69059;52.218;5.172;2023-07-13T00:05:04;98895.63;;;17.24;100.00
65173;BME280;69059;52.218;5.172;2023-07-13T00:07:33;98901.97;;;17.18;100.00
65173;BME280;69059;52.218;5.172;2023-07-13T00:10:01;98904.34;;;17.14;100.00
65173;BME280;69059;52.218;5.172;2023-07-13T00:12:30;98907.25;;;17.13;100.00
65173;BME280;69059;52.218;5.172;2023-07-13T00:15:04;98908.81;;;17.24;100.00
65173;BME280;69059;52.218;5.172;2023-07-13T00:17:33;98901.94;;;17.28;100.00
65173;BME280;69059;52.218;5.172;2023-07-13T00:20:01;98912.00;;;17.21;100.00
65173;BME280;69059;52.218;5.172;2023-07-13T00:22:30;98904.53;;;17.38;100.00
65173;BME280;69059;52.218;5.172;2023-07-13T00:24:58;98906.41;;;17.38;100.00
65173;BME280;69059;52.218;5.172;2023-07-13T00:27:26;98923.84;;;17.29;100.00
65173;BME280;69059;52.218;5.172;2023-07-13T00:29:56;98922.78;;;17.35;100.00
65173;BME280;69059;52.218;5.172;2023-07-13T00:32:27;98927.25;;;17.29;100.00
65173;BME280;69059;52.218;5.172;2023-07-13T00:34:56;98934.66;;;17.27;100.00
65173;BME280;69059;52.218;5.172;2023-07-13T00:37:26;98939.66;;;17.29;100.00
65173;BME280;69059;52.218;5.172;2023-07-13T00:39:54;98952.59;;;17.20;100.00
65173;BME280;69059;52.218;5.172;2023-07-13T00:42:22;98959.47;;;17.01;100.00
65173;BME280;69059;52.218;5.172;2023-07-13T00:46:07;98951.81;;;17.14;100.00
65173;BME280;69059;52.218;5.172;2023-07-13T00:47:58;98938.66;;;17.09;100.00
65173;BME280;69059;52.218;5.172;2023-07-13T00:50:26;98944.97;;;17.08;100.00
65173;BME280;69059;52.218;5.172;2023-07-13T00:52:55;98940.75;;;17.17;100.00
65173;BME280;69059;52.218;5.172;2023-07-13T00:55:24;98942.28;;;17.24;100.00
65173;BME280;69059;52.218;5.172;2023-07-13T00:57:53;98923.13;;;16.93;100.00
65173;BME280;69059;52.218;5.172;2023-07-13T01:00:22;98955.50;;;17.13;100.00
65173;BME280;69059;52.218;5.172;2023-07-13T01:02:50;98967.38;;;17.06;100.00
65173;BME280;69059;52.218;5.172;2023-07-13T01:05:21;98973.97;;;16.88;100.00
65173;BME280;69059;52.218;5.172;2023-07-13T01:07:51;98985.03;;;16.75;100.00
65173;BME280;69059;52.218;5.172;2023-07-13T01:10:21;98970.03;;;16.96;100.00
65173;BME280;69059;52.218;5.172;2023-07-13T01:12:49;98980.84;;;16.79;100.00
65173;BME280;69059;52.218;5.172;2023-07-13T01:18:01;98994.75;;;16.54;100.00
65173;BME280;69059;52.218;5.172;2023-07-13T01:20:31;98986.56;;;16.61;100.00
65173;BME280;69059;52.218;5.172;2023-07-13T01:23:06;98985.78;;;16.60;100.00
65173;BME280;69059;52.218;5.172;2023-07-13T01:25:35;98982.63;;;16.58;100.00
65173;BME280;69059;52.218;5.172;2023-07-13T01:28:05;99000.00;;;16.59;100.00
65173;BME280;69059;52.218;5.172;2023-07-13T01:30:35;98984.78;;;16.66;100.00
65173;BME280;69059;52.218;5.172;2023-07-13T01:33:06;98987.13;;;16.63;100.00
65173;BME280;69059;52.218;5.172;2023-07-13T01:35:36;98981.09;;;16.82;100.00
65173;BME280;69059;52.218;5.172;2023-07-13T01:38:05;99009.00;;;16.58;100.00
65173;BME280;69059;52.218;5.172;2023-07-13T01:40:36;99017.38;;;16.40;100.00
65173;BME280;69059;52.218;5.172;2023-07-13T01:43:04;99002.06;;;16.27;100.00
65173;BME280;69059;52.218;5.172;2023-07-13T01:45:32;99000.25;;;16.42;100.00
65173;BME280;69059;52.218;5.172;2023-07-13T01:48:01;98995.25;;;16.41;100.00
65173;BME280;69059;52.218;5.172;2023-07-13T01:50:29;98993.16;;;16.53;100.00
65173;BME280;69059;52.218;5.172;2023-07-13T01:52:57;99000.00;;;16.49;100.00
65173;BME280;69059;52.218;5.172;2023-07-13T01:55:27;98998.16;;;16.44;100.00
65173;BME280;69059;52.218;5.172;2023-07-13T01:57:56;99010.22;;;16.35;100.00
65173;BME280;69059;52.218;5.172;2023-07-13T02:00:24;98997.63;;;16.47;100.00
65173;BME280;69059;52.218;5.172;2023-07-13T02:02:52;98999.47;;;16.42;100.00
65173;BME280;69059;52.218;5.172;2023-07-13T02:05:20;98987.88;;;16.48;100.00
65173;BME280;69059;52.218;5.172;2023-07-13T02:07:48;98998.13;;;16.29;100.00
65173;BME280;69059;52.218;5.172;2023-07-13T02:10:17;99001.53;;;16.20;100.00
65173;BME280;69059;52.218;5.172;2023-07-13T02:12:48;98997.31;;;16.19;100.00
65173;BME280;69059;52.218;5.172;2023-07-13T02:15:17;98994.44;;;16.30;100.00
65173;BME280;69059;52.218;5.172;2023-07-13T02:17:46;98991.00;;;16.30;100.00
65173;BME280;69059;52.218;5.172;2023-07-13T02:20:14;98995.22;;;16.31;100.00
65173;BME280;69059;52.218;5.172;2023-07-13T02:22:42;98988.09;;;16.26;100.00
65173;BME280;69059;52.218;5.172;2023-07-13T02:25:10;98989.09;;;16.10;100.00
65173;BME280;69059;52.218;5.172;2023-07-13T02:27:38;98992.78;;;16.09;100.00
65173;BME280;69059;52.218;5.172;2023-07-13T02:30:09;98985.22;;;16.28;100.00
65173;BME280;69059;52.218;5.172;2023-07-13T02:32:38;98975.69;;;16.11;100.00
65173;BME280;69059;52.218;5.172;2023-07-13T02:35:06;98989.88;;;16.10;100.00
65173;BME280;69059;52.218;5.172;2023-07-13T02:37:34;98978.53;;;16.00;100.00
65173;BME280;69059;52.218;5.172;2023-07-13T02:40:03;98976.16;;;15.98;100.00
65173;BME280;69059;52.218;5.172;2023-07-13T02:42:35;98964.84;;;15.93;100.00
65173;BME280;69059;52.218;5.172;2023-07-13T02:45:06;98961.94;;;15.99;100.00
65173;BME280;69059;52.218;5.172;2023-07-13T02:47:35;98966.13;;;15.90;100.00
65173;BME280;69059;52.218;5.172;2023-07-13T02:50:03;98973.72;;;15.76;100.00
65173;BME280;69059;52.218;5.172;2023-07-13T02:52:31;98948.25;;;15.97;100.00
65173;BME280;69059;52.218;5.172;2023-07-13T02:54:59;98934.56;;;15.90;100.00
65173;BME280;69059;52.218;5.172;2023-07-13T02:57:28;98938.53;;;15.93;100.00
65173;BME280;69059;52.218;5.172;2023-07-13T02:59:57;98927.75;;;15.94;100.00
65173;BME280;69059;52.218;5.172;2023-07-13T03:02:25;98920.41;;;16.11;100.00
65173;BME280;69059;52.218;5.172;2023-07-13T03:04:56;98910.94;;;16.16;100.00
65173;BME280;69059;52.218;5.172;2023-07-13T03:07:24;98890.09;;;15.99;100.00
65173;BME280;69059;52.218;5.172;2023-07-13T03:09:54;98917.22;;;16.09;100.00
65173;BME280;69059;52.218;5.172;2023-07-13T03:12:22;98921.97;;;16.02;100.00
65173;BME280;69059;52.218;5.172;2023-07-13T03:14:50;98927.22;;;16.02;100.00
65173;BME280;69059;52.218;5.172;2023-07-13T03:17:18;98916.19;;;16.05;100.00
65173;BME280;69059;52.218;5.172;2023-07-13T03:19:47;98924.63;;;16.18;100.00
65173;BME280;69059;52.218;5.172;2023-07-13T03:22:18;98911.47;;;16.28;100.00
65173;BME280;69059;52.218;5.172;2023-07-13T03:24:46;98918.03;;;16.15;100.00
65173;BME280;69059;52.218;5.172;2023-07-13T03:27:15;98922.78;;;16.18;100.00
65173;BME280;69059;52.218;5.172;2023-07-13T03:29:43;98920.69;;;16.15;100.00
65173;BME280;69059;52.218;5.172;2023-07-13T03:32:11;98922.78;;;16.23;100.00
65173;BME280;69059;52.218;5.172;2023-07-13T03:34:39;98933.59;;;16.17;100.00
65173;BME280;69059;52.218;5.172;2023-07-13T03:37:07;98938.31;;;16.15;100.00
65173;BME280;69059;52.218;5.172;2023-07-13T03:39:37;98930.44;;;16.25;100.00
65173;BME280;69059;52.218;5.172;2023-07-13T03:42:06;98927.03;;;16.29;100.00
65173;BME280;69059;52.218;5.172;2023-07-13T03:44:35;98920.97;;;16.29;100.00
65173;BME280;69059;52.218;5.172;2023-07-13T03:47:04;98952.00;;;16.06;100.00
65173;BME280;69059;52.218;5.172;2023-07-13T03:49:32;98957.22;;;16.01;100.00
65173;BME280;69059;52.218;5.172;2023-07-13T03:52:01;98941.97;;;16.08;100.00
65173;BME280;69059;52.218;5.172;2023-07-13T03:54:29;98945.41;;;16.04;100.00
65173;BME280;69059;52.218;5.172;2023-07-13T03:56:58;98932.78;;;16.16;100.00
65173;BME280;69059;52.218;5.172;2023-07-13T03:59:26;98941.47;;;16.06;100.00
65173;BME280;69059;52.218;5.172;2023-07-13T04:01:54;98950.63;;;15.99;100.00
65173;BME280;69059;52.218;5.172;2023-07-13T04:04:23;98948.00;;;15.99;100.00
65173;BME280;69059;52.218;5.172;2023-07-13T04:06:51;98951.91;;;15.81;100.00
65173;BME280;69059;52.218;5.172;2023-07-13T04:09:19;98955.03;;;15.83;100.00
65173;BME280;69059;52.218;5.172;2023-07-13T04:11:47;98945.06;;;15.80;100.00
65173;BME280;69059;52.218;5.172;2023-07-13T04:14:17;98948.97;;;15.77;100.00
65173;BME280;69059;52.218;5.172;2023-07-13T04:16:45;98940.81;;;15.74;100.00
65173;BME280;69059;52.218;5.172;2023-07-13T04:19:13;98942.91;;;15.72;100.00
65173;BME280;69059;52.218;5.172;2023-07-13T04:21:41;98933.97;;;15.73;100.00
65173;BME280;69059;52.218;5.172;2023-07-13T04:24:09;98925.31;;;15.77;100.00
65173;BME280;69059;52.218;5.172;2023-07-13T04:26:37;98908.50;;;15.89;100.00
65173;BME280;69059;52.218;5.172;2023-07-13T04:29:06;98916.09;;;15.75;100.00
65173;BME280;69059;52.218;5.172;2023-07-13T04:31:36;98919.47;;;15.70;100.00
65173;BME280;69059;52.218;5.172;2023-07-13T04:34:04;98913.75;;;15.79;100.00
65173;BME280;69059;52.218;5.172;2023-07-13T04:36:32;98901.69;;;15.93;100.00
65173;BME280;69059;52.218;5.172;2023-07-13T04:39:04;98893.75;;;15.83;100.00
65173;BME280;69059;52.218;5.172;2023-07-13T04:41:33;98907.16;;;15.86;100.00
65173;BME280;69059;52.218;5.172;2023-07-13T04:44:01;98913.72;;;15.84;100.00
65173;BME280;69059;52.218;5.172;2023-07-13T04:46:30;98898.50;;;15.96;100.00
65173;BME280;69059;52.218;5.172;2023-07-13T04:48:59;98882.19;;;15.99;100.00
65173;BME280;69059;52.218;5.172;2023-07-13T04:51:27;98878.78;;;16.08;100.00
65173;BME280;69059;52.218;5.172;2023-07-13T04:53:55;98877.75;;;16.04;100.00
65173;BME280;69059;52.218;5.172;2023-07-13T04:56:27;98871.69;;;16.04;100.00
65173;BME280;69059;52.218;5.172;2023-07-13T04:58:55;98879.28;;;15.85;100.00
65173;BME280;69059;52.218;5.172;2023-07-13T05:01:25;98860.34;;;15.98;100.00
65173;BME280;69059;52.218;5.172;2023-07-13T05:03:53;98835.38;;;16.11;100.00
65173;BME280;69059;52.218;5.172;2023-07-13T05:06:24;98841.41;;;16.01;100.00
65173;BME280;69059;52.218;5.172;2023-07-13T05:08:52;98833.00;;;16.04;100.00
65173;BME280;69059;52.218;5.172;2023-07-13T05:11:20;98820.13;;;16.18;100.00
65173;BME280;69059;52.218;5.172;2023-07-13T05:13:49;98814.56;;;16.09;100.00
65173;BME280;69059;52.218;5.172;2023-07-13T05:16:17;98805.63;;;16.16;100.00
65173;BME280;69059;52.218;5.172;2023-07-13T05:18:45;98810.91;;;16.21;100.00
65173;BME280;69059;52.218;5.172;2023-07-13T05:21:13;98795.63;;;16.23;100.00
65173;BME280;69059;52.218;5.172;2023-07-13T05:23:43;98787.72;;;16.23;100.00
65173;BME280;69059;52.218;5.172;2023-07-13T05:26:11;98773.75;;;16.37;100.00
65173;BME280;69059;52.218;5.172;2023-07-13T05:28:39;98777.97;;;16.23;100.00
65173;BME280;69059;52.218;5.172;2023-07-13T05:31:07;98772.72;;;16.18;100.00
65173;BME280;69059;52.218;5.172;2023-07-13T05:33:37;98761.41;;;16.28;100.00
65173;BME280;69059;52.218;5.172;2023-07-13T05:36:05;98748.47;;;16.41;100.00
65173;BME280;69059;52.218;5.172;2023-07-13T05:38:34;98731.84;;;16.56;100.00
65173;BME280;69059;52.218;5.172;2023-07-13T05:41:03;98705.25;;;16.63;100.00
65173;BME280;69059;52.218;5.172;2023-07-13T05:43:32;98724.47;;;16.63;100.00
65173;BME280;69059;52.218;5.172;2023-07-13T05:46:00;98727.13;;;16.63;100.00
65173;BME280;69059;52.218;5.172;2023-07-13T05:48:28;98720.75;;;16.79;100.00
65173;BME280;69059;52.218;5.172;2023-07-13T05:50:57;98727.63;;;16.70;100.00
65173;BME280;69059;52.218;5.172;2023-07-13T05:53:25;98718.91;;;16.75;100.00
65173;BME280;69059;52.218;5.172;2023-07-13T05:55:54;98704.56;;;17.01;100.00
65173;BME280;69059;52.218;5.172;2023-07-13T05:58:26;98710.03;;;17.15;100.00
65173;BME280;69059;52.218;5.172;2023-07-13T06:01:00;98708.91;;;17.26;100.00
65173;BME280;69059;52.218;5.172;2023-07-13T06:03:28;98718.66;;;17.26;100.00
65173;BME280;69059;52.218;5.172;2023-07-13T06:05:56;98717.25;;;17.43;100.00
65173;BME280;69059;52.218;5.172;2023-07-13T06:08:27;98737.59;;;17.38;100.00
65173;BME280;69059;52.218;5.172;2023-07-13T06:11:02;98741.84;;;17.34;100.00
65173;BME280;69059;52.218;5.172;2023-07-13T06:13:32;98749.75;;;17.34;100.00
65173;BME280;69059;52.218;5.172;2023-07-13T06:16:02;98770.41;;;17.22;100.00
65173;BME280;69059;52.218;5.172;2023-07-13T06:18:31;98770.16;;;17.13;100.00
65173;BME280;69059;52.218;5.172;2023-07-13T06:21:00;98768.50;;;17.27;100.00
65173;BME280;69059;52.218;5.172;2023-07-13T06:23:28;98774.63;;;17.17;100.00
65173;BME280;69059;52.218;5.172;2023-07-13T06:25:56;98779.38;;;17.21;100.00
65173;BME280;69059;52.218;5.172;2023-07-13T06:28:24;98780.69;;;17.18;100.00
65173;BME280;69059;52.218;5.172;2023-07-13T06:30:53;98756.56;;;17.45;100.00
65173;BME280;69059;52.218;5.172;2023-07-13T06:33:22;98739.81;;;17.70;100.00
65173;BME280;69059;52.218;5.172;2023-07-13T06:35:50;98724.22;;;18.02;100.00
65173;BME280;69059;52.218;5.172;2023-07-13T06:38:18;98730.03;;;18.04;100.00
65173;BME280;69059;52.218;5.172;2023-07-13T06:40:46;98712.44;;;18.23;100.00
65173;BME280;69059;52.218;5.172;2023-07-13T06:43:14;98708.50;;;18.45;100.00
65173;BME280;69059;52.218;5.172;2023-07-13T06:45:45;98712.66;;;18.75;100.00
65173;BME280;69059;52.218;5.172;2023-07-13T06:48:17;98739.84;;;18.80;100.00
65173;BME280;69059;52.218;5.172;2023-07-13T06:50:47;98752.75;;;18.87;100.00
65173;BME280;69059;52.218;5.172;2023-07-13T06:53:17;98773.16;;;18.81;100.00
65173;BME280;69059;52.218;5.172;2023-07-13T06:55:46;98805.03;;;18.66;100.00
65173;BME280;69059;52.218;5.172;2023-07-13T06:58:14;98838.66;;;18.55;100.00
65173;BME280;69059;52.218;5.172;2023-07-13T07:00:43;98830.69;;;17.98;100.00
65173;BME280;69059;52.218;5.172;2023-07-13T07:03:12;98892.75;;;17.90;100.00
65173;BME280;69059;52.218;5.172;2023-07-13T07:05:41;98894.25;;;17.42;100.00
65173;BME280;69059;52.218;5.172;2023-07-13T07:08:09;98862.66;;;17.32;100.00
65173;BME280;69059;52.218;5.172;2023-07-13T07:10:37;98829.22;;;17.17;100.00
65173;BME280;69059;52.218;5.172;2023-07-13T07:13:05;98820.28;;;17.08;100.00
65173;BME280;69059;52.218;5.172;2023-07-13T07:15:34;98818.75;;;16.92;100.00
65173;BME280;69059;52.218;5.172;2023-07-13T07:18:03;98845.13;;;16.31;100.00
65173;BME280;69059;52.218;5.172;2023-07-13T07:20:31;98848.53;;;16.11;100.00
65173;BME280;69059;52.218;5.172;2023-07-13T07:23:01;98845.66;;;16.07;100.00
65173;BME280;69059;52.218;5.172;2023-07-13T07:25:29;98869.25;;;15.77;100.00
65173;BME280;69059;52.218;5.172;2023-07-13T07:27:59;98860.06;;;15.80;100.00
65173;BME280;69059;52.218;5.172;2023-07-13T07:30:30;98868.69;;;15.65;100.00
65173;BME280;69059;52.218;5.172;2023-07-13T07:33:00;98844.56;;;15.93;100.00
65173;BME280;69059;52.218;5.172;2023-07-13T07:35:31;98821.69;;;16.09;100.00
65173;BME280;69059;52.218;5.172;2023-07-13T07:38:06;98823.78;;;16.02;100.00
65173;BME280;69059;52.218;5.172;2023-07-13T07:40:36;98814.59;;;16.20;100.00
65173;BME280;69059;52.218;5.172;2023-07-13T07:43:08;98821.94;;;16.12;100.00
65173;BME280;69059;52.218;5.172;2023-07-13T07:45:37;98810.13;;;16.30;100.00
65173;BME280;69059;52.218;5.172;2023-07-13T07:48:06;98804.84;;;16.30;100.00
65173;BME280;69059;52.218;5.172;2023-07-13T07:50:36;98791.91;;;16.54;100.00
65173;BME280;69059;52.218;5.172;2023-07-13T07:53:07;98761.81;;;16.86;100.00
65173;BME280;69059;52.218;5.172;2023-07-13T07:55:37;98721.03;;;17.27;100.00
65173;BME280;69059;52.218;5.172;2023-07-13T07:58:08;98701.50;;;17.33;100.00
65173;BME280;69059;52.218;5.172;2023-07-13T08:01:02;98689.47;;;17.56;100.00
65173;BME280;69059;52.218;5.172;2023-07-13T08:03:33;98687.38;;;17.53;100.00
65173;BME280;69059;52.218;5.172;2023-07-13T08:06:04;98665.19;;;17.59;100.00
65173;BME280;69059;52.218;5.172;2023-07-13T08:08:36;98624.41;;;18.04;100.00
65173;BME280;69059;52.218;5.172;2023-07-13T08:11:05;98612.63;;;18.20;100.00
65173;BME280;69059;52.218;5.172;2023-07-13T08:13:37;98585.72;;;18.37;100.00
65173;BME280;69059;52.218;5.172;2023-07-13T08:16:06;98602.69;;;18.36;100.00
65173;BME280;69059;52.218;5.172;2023-07-13T08:18:34;98608.38;;;18.67;100.00
65173;BME280;69059;52.218;5.172;2023-07-13T08:21:06;98644.72;;;18.33;100.00
65173;BME280;69059;52.218;5.172;2023-07-13T08:23:36;98694.50;;;18.20;100.00
65173;BME280;69059;52.218;5.172;2023-07-13T08:26:05;98733.44;;;18.05;100.00
65173;BME280;69059;52.218;5.172;2023-07-13T08:28:33;98727.06;;;18.11;100.00
65173;BME280;69059;52.218;5.172;2023-07-13T08:31:02;98735.94;;;17.91;100.00
65173;BME280;69059;52.218;5.172;2023-07-13T08:33:30;98752.72;;;17.71;100.00
65173;BME280;69059;52.218;5.172;2023-07-13T08:35:58;98778.19;;;17.47;100.00
65173;BME280;69059;52.218;5.172;2023-07-13T08:38:26;98823.22;;;16.96;100.00
65173;BME280;69059;52.218;5.172;2023-07-13T08:40:56;98863.03;;;16.39;100.00
65173;BME280;69059;52.218;5.172;2023-07-13T08:43:26;98874.63;;;16.53;100.00
65173;BME280;69059;52.218;5.172;2023-07-13T08:46:01;98872.53;;;16.55;100.00
65173;BME280;69059;52.218;5.172;2023-07-13T08:48:32;98876.19;;;16.59;100.00
65173;BME280;69059;52.218;5.172;2023-07-13T08:51:09;98880.69;;;16.64;100.00
65173;BME280;69059;52.218;5.172;2023-07-13T08:53:42;98864.34;;;16.52;100.00
65173;BME280;69059;52.218;5.172;2023-07-13T08:56:16;98844.06;;;16.57;100.00
65173;BME280;69059;52.218;5.172;2023-07-13T08:58:48;98793.94;;;16.98;100.00
65173;BME280;69059;52.218;5.172;2023-07-13T09:01:22;98755.03;;;17.34;100.00
65173;BME280;69059;52.218;5.172;2023-07-13T09:03:58;98765.84;;;17.32;100.00
65173;BME280;69059;52.218;5.172;2023-07-13T09:06:35;98780.47;;;17.04;100.00
65173;BME280;69059;52.218;5.172;2023-07-13T09:09:14;98809.25;;;16.91;100.00
65173;BME280;69059;52.218;5.172;2023-07-13T09:11:51;98794.72;;;16.98;100.00
65173;BME280;69059;52.218;5.172;2023-07-13T09:14:36;98800.28;;;16.97;100.00
65173;BME280;69059;52.218;5.172;2023-07-13T09:17:13;98808.63;;;17.19;100.00
65173;BME280;69059;52.218;5.172;2023-07-13T09:19:43;98799.66;;;17.20;100.00
65173;BME280;69059;52.218;5.172;2023-07-13T09:22:16;98785.25;;;17.57;100.00
65173;BME280;69059;52.218;5.172;2023-07-13T09:24:53;98795.88;;;17.41;100.00
65173;BME280;69059;52.218;5.172;2023-07-13T09:27:29;98783.03;;;17.74;100.00
65173;BME280;69059;52.218;5.172;2023-07-13T09:30:09;98779.16;;;18.00;100.00
65173;BME280;69059;52.218;5.172;2023-07-13T09:32:49;98751.19;;;18.28;100.00
65173;BME280;69059;52.218;5.172;2023-07-13T09:35:21;98731.38;;;18.59;100.00
65173;BME280;69059;52.218;5.172;2023-07-13T09:37:50;98699.94;;;19.01;100.00
65173;BME280;69059;52.218;5.172;2023-07-13T09:40:23;98743.00;;;18.58;100.00
65173;BME280;69059;52.218;5.172;2023-07-13T09:42:56;98756.75;;;18.55;100.00
65173;BME280;69059;52.218;5.172;2023-07-13T09:45:32;98768.75;;;18.72;100.00
65173;BME280;69059;52.218;5.172;2023-07-13T09:48:05;98754.59;;;18.86;100.00
65173;BME280;69059;52.218;5.172;2023-07-13T09:50:34;98782.09;;;18.62;100.00
65173;BME280;69059;52.218;5.172;2023-07-13T09:53:03;98787.78;;;18.74;100.00
65173;BME280;69059;52.218;5.172;2023-07-13T09:55:37;98775.22;;;18.84;100.00
65173;BME280;69059;52.218;5.172;2023-07-13T09:58:10;98766.13;;;19.14;100.00
65173;BME280;69059;52.218;5.172;2023-07-13T10:00:39;98753.66;;;19.39;100.00
65173;BME280;69059;52.218;5.172;2023-07-13T10:03:17;98768.72;;;19.19;100.00
65173;BME280;69059;52.218;5.172;2023-07-13T10:05:47;98787.91;;;19.30;100.00
65173;BME280;69059;52.218;5.172;2023-07-13T10:08:18;98807.16;;;19.36;100.00
65173;BME280;69059;52.218;5.172;2023-07-13T10:10:52;98816.25;;;19.48;100.00
65173;BME280;69059;52.218;5.172;2023-07-13T10:13:29;98817.50;;;19.56;100.00
65173;BME280;69059;52.218;5.172;2023-07-13T10:15:59;98846.97;;;19.49;100.00
65173;BME280;69059;52.218;5.172;2023-07-13T10:18:28;98888.00;;;19.23;100.00
65173;BME280;69059;52.218;5.172;2023-07-13T10:21:09;98901.88;;;19.10;100.00
65173;BME280;69059;52.218;5.172;2023-07-13T10:24:04;98965.50;;;18.94;100.00
65173;BME280;69059;52.218;5.172;2023-07-13T10:26:34;98978.34;;;19.06;100.00
65173;BME280;69059;52.218;5.172;2023-07-13T10:29:06;99010.56;;;18.79;100.00
65173;BME280;69059;52.218;5.172;2023-07-13T10:31:38;99008.97;;;18.78;100.00
65173;BME280;69059;52.218;5.172;2023-07-13T10:34:09;98999.97;;;18.79;100.00
65173;BME280;69059;52.218;5.172;2023-07-13T10:36:40;98986.13;;;18.92;100.00
65173;BME280;69059;52.218;5.172;2023-07-13T10:39:16;98949.63;;;19.47;100.00
65173;BME280;69059;52.218;5.172;2023-07-13T10:41:48;98935.16;;;19.87;100.00
65173;BME280;69059;52.218;5.172;2023-07-13T10:44:24;98952.53;;;19.75;100.00
65173;BME280;69059;52.218;5.172;2023-07-13T10:46:57;98984.41;;;19.64;100.00
65173;BME280;69059;52.218;5.172;2023-07-13T10:49:28;99000.66;;;19.53;100.00
65173;BME280;69059;52.218;5.172;2023-07-13T10:51:57;99004.78;;;19.06;100.00
65173;BME280;69059;52.218;5.172;2023-07-13T10:54:31;99034.66;;;19.12;100.00
65173;BME280;69059;52.218;5.172;2023-07-13T10:57:14;99053.16;;;19.12;100.00
65173;BME280;69059;52.218;5.172;2023-07-13T10:59:48;99031.84;;;19.27;100.00
65173;BME280;69059;52.218;5.172;2023-07-13T11:02:25;99033.00;;;19.45;100.00
65173;BME280;69059;52.218;5.172;2023-07-13T11:04:56;98997.66;;;19.88;100.00
65173;BME280;69059;52.218;5.172;2023-07-13T11:07:27;99015.09;;;19.89;100.00
65173;BME280;69059;52.218;5.172;2023-07-13T11:09:57;99025.88;;;19.98;100.00
65173;BME280;69059;52.218;5.172;2023-07-13T11:12:49;99067.72;;;19.72;100.00
65173;BME280;69059;52.218;5.172;2023-07-13T11:15:32;99108.81;;;19.64;100.00
65173;BME280;69059;52.218;5.172;2023-07-13T11:18:09;99139.75;;;19.35;100.00
65173;BME280;69059;52.218;5.172;2023-07-13T11:20:48;99133.28;;;19.51;100.00
65173;BME280;69059;52.218;5.172;2023-07-13T11:23:27;99110.22;;;20.10;100.00
65173;BME280;69059;52.218;5.172;2023-07-13T11:25:57;99101.97;;;20.35;100.00
65173;BME280;69059;52.218;5.172;2023-07-13T11:28:30;99138.63;;;20.28;100.00
65173;BME280;69059;52.218;5.172;2023-07-13T11:31:03;99145.91;;;20.41;100.00
65173;BME280;69059;52.218;5.172;2023-07-13T11:33:54;99166.63;;;20.63;100.00
65173;BME280;69059;52.218;5.172;2023-07-13T11:36:30;99180.84;;;21.09;100.00
65173;BME280;69059;52.218;5.172;2023-07-13T11:39:03;99239.34;;;20.99;100.00
65173;BME280;69059;52.218;5.172;2023-07-13T11:41:35;99226.56;;;21.25;100.00
65173;BME280;69059;52.218;5.172;2023-07-13T11:44:13;99193.00;;;21.67;100.00
65173;BME280;69059;52.218;5.172;2023-07-13T11:46:47;99135.97;;;22.24;100.00
65173;BME280;69059;52.218;5.172;2023-07-13T11:49:19;99291.00;;;21.50;100.00
65173;BME280;69059;52.218;5.172;2023-07-13T11:51:50;99349.97;;;21.47;100.00
65173;BME280;69059;52.218;5.172;2023-07-13T11:54:27;99328.31;;;21.58;100.00
65173;BME280;69059;52.218;5.172;2023-07-13T11:56:59;99375.13;;;21.30;100.00
65173;BME280;69059;52.218;5.172;2023-07-13T11:59:30;99356.03;;;21.28;100.00
65173;BME280;69059;52.218;5.172;2023-07-13T12:02:01;99396.78;;;21.61;100.00
65173;BME280;69059;52.218;5.172;2023-07-13T12:04:32;99449.44;;;21.78;100.00
65173;BME280;69059;52.218;5.172;2023-07-13T12:07:07;99409.88;;;21.95;100.00
65173;BME280;69059;52.218;5.172;2023-07-13T12:09:36;99426.19;;;21.89;100.00
65173;BME280;69059;52.218;5.172;2023-07-13T12:12:10;99400.47;;;22.40;100.00
65173;BME280;69059;52.218;5.172;2023-07-13T12:14:39;99475.66;;;22.27;100.00
65173;BME280;69059;52.218;5.172;2023-07-13T12:17:17;99415.03;;;22.62;100.00
65173;BME280;69059;52.218;5.172;2023-07-13T12:19:47;99361.78;;;22.94;100.00
65173;BME280;69059;52.218;5.172;2023-07-13T12:22:17;99493.81;;;23.22;100.00
65173;BME280;69059;52.218;5.172;2023-07-13T12:24:46;99479.44;;;23.23;100.00
65173;BME280;69059;52.218;5.172;2023-07-13T12:27:19;99583.22;;;23.10;100.00
65173;BME280;69059;52.218;5.172;2023-07-13T12:29:50;99587.41;;;22.97;100.00
65173;BME280;69059;52.218;5.172;2023-07-13T12:32:21;99536.91;;;22.78;100.00
65173;BME280;69059;52.218;5.172;2023-07-13T12:34:53;99503.31;;;23.29;100.00
65173;BME280;69059;52.218;5.172;2023-07-13T12:37:23;99562.09;;;22.81;100.00
65173;BME280;69059;52.218;5.172;2023-07-13T12:39:52;99582.53;;;23.04;100.00
65173;BME280;69059;52.218;5.172;2023-07-13T12:42:23;99688.47;;;22.83;100.00
65173;BME280;69059;52.218;5.172;2023-07-13T12:44:56;99681.38;;;22.79;100.00
65173;BME280;69059;52.218;5.172;2023-07-13T12:47:27;99536.16;;;22.92;100.00
65173;BME280;69059;52.218;5.172;2023-07-13T12:49:58;99546.41;;;23.44;100.00
65173;BME280;69059;52.218;5.172;2023-07-13T12:52:30;99537.09;;;23.61;100.00
65173;BME280;69059;52.218;5.172;2023-07-13T12:55:04;99628.00;;;23.40;100.00
65173;BME280;69059;52.218;5.172;2023-07-13T12:57:39;99490.41;;;23.36;100.00
65173;BME280;69059;52.218;5.172;2023-07-13T13:00:21;99601.75;;;23.34;100.00
65173;BME280;69059;52.218;5.172;2023-07-13T13:02:53;99690.00;;;22.42;100.00
65173;BME280;69059;52.218;5.172;2023-07-13T13:05:41;99579.78;;;22.53;100.00
65173;BME280;69059;52.218;5.172;2023-07-13T13:08:11;99606.72;;;23.21;100.00
65173;BME280;69059;52.218;5.172;2023-07-13T13:10:39;99528.41;;;24.23;100.00